Terminal Aerodrome Forecast
Issued by NWS

Home | Current Version | Previous Version | Text Only | Print | Product List | Glossary On
Versions: 1 2 3 4 5 6 7 8 9 10 11 12 13 14 15 16 17 18 19 20 21 22 23 24 25 26 27 28 29 30 31 32 33 34 35 36 37 38 39 40
000
FTUS45 KPSR 292339 CCA
TAFIWA
TAF COR
KIWA 292339Z 3000/3024 29009KT P6SM FEW090 SCT150 BKN250
     FM300400 VRB05KT P6SM VCSH SCT090 BKN150 BKN200
     FM300500 10010KT P6SM SCT150 BKN200
     FM300700 VRB03KT P6SM SCT150 BKN200
     FM301800 26007KT P6SM FEW150 SCT200
      AMD LTD TO CLD VIS AND WIND 3003/3013=

USA.gov is the U.S. government's official web portal to all federal, state and local government web resources and services.